createdAt,value
2019-05-21T00:01:32.704Z,15.20
2019-05-21T00:04:00.614Z,15.00
2019-05-21T00:06:28.513Z,14.90
2019-05-21T00:08:56.421Z,14.80
2019-05-21T00:11:24.519Z,14.80
2019-05-21T00:13:52.805Z,14.80
2019-05-21T00:16:20.713Z,14.80
2019-05-21T00:18:48.915Z,14.60
2019-05-21T00:21:17.064Z,14.80
2019-05-21T00:23:45.708Z,14.90
2019-05-21T00:26:13.917Z,14.70
2019-05-21T00:28:41.491Z,14.80
2019-05-21T00:31:46.110Z,14.70
2019-05-21T00:34:51.081Z,14.70
2019-05-21T00:37:56.002Z,14.80
2019-05-21T00:41:00.775Z,14.70
2019-05-21T00:43:38.762Z,14.70
2019-05-21T00:46:07.462Z,14.80
2019-05-21T00:48:35.732Z,14.80
2019-05-21T00:51:03.881Z,14.80
2019-05-21T00:53:32.509Z,14.70
2019-05-21T00:56:00.709Z,14.60
2019-05-21T00:58:29.606Z,14.80
2019-05-21T01:00:57.613Z,14.70
2019-05-21T01:03:25.518Z,14.50
2019-05-21T01:05:53.422Z,14.40
2019-05-21T01:08:21.778Z,14.50
2019-05-21T01:10:49.930Z,14.50
2019-05-21T01:13:18.097Z,14.60
2019-05-21T01:15:46.230Z,14.70
2019-05-21T01:18:14.465Z,14.60
2019-05-21T01:20:42.713Z,14.50
2019-05-21T01:23:11.061Z,14.40
2019-05-21T01:25:38.963Z,14.50
2019-05-21T01:28:07.101Z,14.40
2019-05-21T01:30:35.242Z,14.40
2019-05-21T01:33:03.277Z,14.40
2019-05-21T01:35:31.658Z,14.30
2019-05-21T01:37:59.728Z,14.30
2019-05-21T01:40:27.634Z,14.40
2019-05-21T01:42:55.545Z,14.50
2019-05-21T01:45:23.483Z,14.50
2019-05-21T01:47:51.391Z,14.50
2019-05-21T01:50:19.305Z,14.50
2019-05-21T01:52:47.322Z,14.50
2019-05-21T01:55:15.270Z,14.50
2019-05-21T01:57:43.181Z,14.50
2019-05-21T02:00:11.386Z,14.50
2019-05-21T02:02:39.314Z,14.40
2019-05-21T02:05:15.811Z,14.30
2019-05-21T02:07:43.721Z,14.40
2019-05-21T02:10:11.966Z,14.40
2019-05-21T02:12:39.897Z,14.30
2019-05-21T02:15:08.021Z,14.40
2019-05-21T02:17:36.031Z,14.30
2019-05-21T02:20:04.561Z,14.40
2019-05-21T02:22:32.562Z,14.30
2019-05-21T02:25:00.602Z,14.30
2019-05-21T02:27:28.523Z,14.30
2019-05-21T02:29:56.564Z,14.40
2019-05-21T02:32:24.463Z,14.30
2019-05-21T02:34:52.414Z,14.20
2019-05-21T02:37:20.332Z,14.30
2019-05-21T02:39:48.342Z,14.40
2019-05-21T02:42:16.348Z,14.40
2019-05-21T02:44:44.570Z,14.50
2019-05-21T02:47:12.490Z,14.40
2019-05-21T02:49:40.762Z,14.50
2019-05-21T02:52:08.810Z,14.20
2019-05-21T02:54:41.344Z,14.30
2019-05-21T02:57:07.089Z,14.30
2019-05-21T02:59:35.097Z,14.50
2019-05-21T03:02:09.432Z,14.40
2019-05-21T03:04:37.441Z,14.30
2019-05-21T03:07:17.069Z,14.40
2019-05-21T03:09:46.655Z,14.30
2019-05-21T03:12:14.868Z,14.30
2019-05-21T03:14:43.061Z,14.50
2019-05-21T03:17:11.083Z,14.30
2019-05-21T03:19:39.094Z,14.30
2019-05-21T03:22:07.103Z,14.40
2019-05-21T03:24:35.273Z,14.40
2019-05-21T03:27:03.511Z,14.50
2019-05-21T03:29:31.526Z,14.20
2019-05-21T03:31:59.525Z,14.10
2019-05-21T03:34:27.434Z,14.30
2019-05-21T03:36:58.464Z,14.30
2019-05-21T03:39:26.476Z,14.40
2019-05-21T03:41:54.776Z,14.30
2019-05-21T03:44:22.845Z,14.30
2019-05-21T03:46:50.857Z,14.20
2019-05-21T03:49:18.859Z,14.40
2019-05-21T03:51:46.873Z,14.40
2019-05-21T03:54:14.905Z,14.50
2019-05-21T03:56:42.989Z,14.30
2019-05-21T03:59:10.986Z,14.30
2019-05-21T04:01:39.004Z,14.40
2019-05-21T04:04:29.454Z,14.60
2019-05-21T04:06:56.462Z,14.50
2019-05-21T04:09:23.518Z,14.60
2019-05-21T04:11:53.148Z,14.60
2019-05-21T04:14:42.174Z,14.40
2019-05-21T04:17:17.083Z,14.30
2019-05-21T04:19:44.123Z,14.30
2019-05-21T04:22:15.425Z,14.20
2019-05-21T04:24:42.342Z,14.10
2019-05-21T04:27:09.283Z,14.20
2019-05-21T04:29:36.293Z,14.10
2019-05-21T04:32:03.408Z,14.10
2019-05-21T04:34:30.501Z,14.20
2019-05-21T04:37:09.756Z,14.30
2019-05-21T04:39:26.221Z,14.30
2019-05-21T04:41:53.201Z,14.30
2019-05-21T04:44:20.131Z,14.30
2019-05-21T04:46:47.038Z,14.20
2019-05-21T04:49:14.323Z,14.00
2019-05-21T04:51:41.422Z,14.00
2019-05-21T04:54:08.340Z,14.00
2019-05-21T04:56:35.247Z,14.00
2019-05-21T04:59:04.202Z,14.20
2019-05-21T05:01:31.128Z,14.10
2019-05-21T05:03:59.139Z,14.10
2019-05-21T05:06:27.042Z,14.10
2019-05-21T05:08:54.962Z,14.10
2019-05-21T05:11:22.974Z,14.10
2019-05-21T05:13:50.889Z,14.20
2019-05-21T05:16:18.992Z,14.20
2019-05-21T05:18:46.918Z,14.20
2019-05-21T05:21:14.826Z,14.20
2019-05-21T05:23:42.878Z,14.20
2019-05-21T05:26:10.990Z,14.10
2019-05-21T05:28:39.202Z,14.10
2019-05-21T05:31:07.335Z,14.20
2019-05-21T05:33:35.593Z,14.00
2019-05-21T05:36:03.611Z,13.90
2019-05-21T05:38:31.829Z,13.90
2019-05-21T05:40:59.881Z,14.10
2019-05-21T05:43:27.794Z,14.00
2019-05-21T05:45:55.919Z,13.90
2019-05-21T05:48:24.529Z,14.00
2019-05-21T05:50:54.468Z,14.10
2019-05-21T05:53:22.389Z,14.10
2019-05-21T05:55:50.402Z,14.10
2019-05-21T05:58:18.439Z,14.20
2019-05-21T06:00:46.634Z,14.10
2019-05-21T06:03:14.661Z,14.00
2019-05-21T06:05:42.565Z,14.00
2019-05-21T06:08:10.499Z,14.10
2019-05-21T06:10:40.096Z,13.90
2019-05-21T06:13:08.226Z,13.90
2019-05-21T06:15:36.541Z,14.00
2019-05-21T06:18:04.612Z,14.10
2019-05-21T06:20:33.025Z,14.00
2019-05-21T06:23:01.168Z,14.20
2019-05-21T06:25:29.523Z,14.20
2019-05-21T06:27:57.681Z,14.30
2019-05-21T06:30:25.689Z,14.20
2019-05-21T06:32:54.156Z,14.20
2019-05-21T06:35:22.168Z,14.10
2019-05-21T06:37:50.272Z,14.10
2019-05-21T06:40:20.666Z,14.20
2019-05-21T06:42:48.826Z,14.00
2019-05-21T06:45:17.284Z,14.00
2019-05-21T06:47:45.417Z,14.20
2019-05-21T06:50:13.924Z,13.80
2019-05-21T06:52:41.911Z,14.00
2019-05-21T06:55:10.580Z,13.90
2019-05-21T06:57:38.502Z,13.90
2019-05-21T07:00:08.837Z,13.90
2019-05-21T07:02:36.984Z,13.90
2019-05-21T07:05:05.485Z,14.00
2019-05-21T07:07:34.211Z,13.70
2019-05-21T07:10:04.732Z,13.90
2019-05-21T07:12:32.156Z,14.10
2019-05-21T07:14:59.455Z,14.20
2019-05-21T07:17:27.515Z,14.20
2019-05-21T07:19:55.999Z,14.40
2019-05-21T07:22:24.252Z,14.40
2019-05-21T07:24:52.462Z,14.40
2019-05-21T07:27:20.722Z,14.40
2019-05-21T07:29:49.261Z,14.40
2019-05-21T07:32:17.310Z,14.30
2019-05-21T07:34:45.706Z,14.20
2019-05-21T07:37:14.468Z,14.30
2019-05-21T07:39:43.290Z,14.20
2019-05-21T07:42:11.357Z,14.10
2019-05-21T07:44:40.127Z,14.20
2019-05-21T07:47:08.300Z,14.20
2019-05-21T07:49:36.801Z,14.30
2019-05-21T07:52:04.962Z,14.20
2019-05-21T07:54:33.047Z,14.40
2019-05-21T07:57:01.643Z,14.30
2019-05-21T07:59:30.303Z,14.30
2019-05-21T08:01:58.469Z,14.30
2019-05-21T08:04:26.947Z,14.40
2019-05-21T08:06:55.526Z,14.30
2019-05-21T08:09:23.770Z,14.30
2019-05-21T08:11:52.554Z,14.30
2019-05-21T08:14:20.825Z,14.50
2019-05-21T08:16:48.887Z,14.50
2019-05-21T08:19:17.145Z,14.40
2019-05-21T08:21:45.293Z,14.40
2019-05-21T08:24:13.478Z,14.50
2019-05-21T08:26:42.020Z,14.40
2019-05-21T08:29:10.136Z,14.40
2019-05-21T08:31:38.197Z,14.40
2019-05-21T08:34:06.288Z,14.50
2019-05-21T08:36:34.394Z,14.60
2019-05-21T08:39:04.175Z,14.50
2019-05-21T08:41:32.343Z,14.30
2019-05-21T08:44:01.014Z,14.30
2019-05-21T08:46:29.457Z,14.40
2019-05-21T08:48:57.738Z,14.50
2019-05-21T08:51:26.025Z,14.40
2019-05-21T08:53:54.419Z,14.20
2019-05-21T08:56:22.827Z,14.00
2019-05-21T08:58:51.214Z,14.20
2019-05-21T09:01:19.269Z,14.20
2019-05-21T09:03:47.665Z,14.40
2019-05-21T09:06:16.033Z,14.40
2019-05-21T09:08:44.174Z,14.40
2019-05-21T09:11:12.226Z,14.50
2019-05-21T09:13:40.924Z,14.40
2019-05-21T09:16:09.057Z,14.50
2019-05-21T09:18:37.285Z,14.40
2019-05-21T09:21:05.666Z,14.40
2019-05-21T09:23:33.852Z,14.50
2019-05-21T09:26:02.159Z,14.50
2019-05-21T09:28:30.126Z,14.50
2019-05-21T09:31:01.681Z,14.50
2019-05-21T09:33:29.630Z,14.50
2019-05-21T09:35:58.278Z,14.50
2019-05-21T09:38:26.550Z,14.40
2019-05-21T09:40:54.819Z,14.30
2019-05-21T09:43:23.170Z,14.40
2019-05-21T09:45:51.422Z,14.70
2019-05-21T09:48:19.780Z,14.40
2019-05-21T09:50:47.733Z,14.30
2019-05-21T09:53:15.861Z,14.40
2019-05-21T09:55:44.029Z,14.40
2019-05-21T09:58:32.527Z,14.50
2019-05-21T10:01:20.486Z,14.40
2019-05-21T10:03:54.285Z,14.20
2019-05-21T10:06:22.548Z,14.20
2019-05-21T10:08:50.947Z,14.20
2019-05-21T10:11:19.590Z,14.20
2019-05-21T10:13:47.715Z,14.30
2019-05-21T10:16:15.672Z,14.30
2019-05-21T10:18:43.945Z,14.20
2019-05-21T10:21:12.314Z,14.10
2019-05-21T10:23:40.246Z,14.10
2019-05-21T10:26:08.627Z,14.10
2019-05-21T10:28:36.693Z,14.10
2019-05-21T10:31:05.340Z,13.90
2019-05-21T10:33:33.897Z,14.10
2019-05-21T10:36:02.486Z,14.10
2019-05-21T10:38:30.919Z,14.10
2019-05-21T10:40:59.723Z,14.00
2019-05-21T10:43:28.099Z,13.90
2019-05-21T10:45:56.516Z,14.00
2019-05-21T10:48:24.582Z,14.10
2019-05-21T10:50:53.152Z,14.00
2019-05-21T10:53:21.907Z,14.00
2019-05-21T10:55:50.682Z,13.80
2019-05-21T10:58:19.272Z,14.00
2019-05-21T11:00:49.054Z,14.10
2019-05-21T11:03:20.446Z,14.10
2019-05-21T11:06:08.621Z,14.20
2019-05-21T11:08:24.057Z,14.30
2019-05-21T11:10:52.537Z,14.10
2019-05-21T11:13:20.635Z,14.10
2019-05-21T11:15:49.101Z,14.20
2019-05-21T11:18:17.962Z,14.00
2019-05-21T11:20:46.034Z,14.10
2019-05-21T11:23:14.372Z,14.30
2019-05-21T11:25:42.859Z,14.40
2019-05-21T11:28:11.483Z,14.40
2019-05-21T11:30:39.814Z,14.50
2019-05-21T11:33:08.025Z,14.20
2019-05-21T11:35:36.543Z,14.30
2019-05-21T11:38:05.415Z,14.30
2019-05-21T11:40:33.869Z,14.20
2019-05-21T11:43:02.017Z,14.30
2019-05-21T11:45:32.618Z,14.30
2019-05-21T11:48:00.927Z,14.40
2019-05-21T11:50:29.586Z,14.40
2019-05-21T11:52:57.979Z,14.50
2019-05-21T11:55:26.042Z,14.40
2019-05-21T11:57:54.651Z,14.50
2019-05-21T12:00:24.301Z,14.60
2019-05-21T12:02:52.475Z,14.60
2019-05-21T12:05:20.640Z,14.60
2019-05-21T12:07:48.724Z,14.50
2019-05-21T12:10:16.887Z,14.50
2019-05-21T12:12:45.001Z,14.60
2019-05-21T12:15:14.459Z,14.60
2019-05-21T12:17:42.502Z,14.50
2019-05-21T12:20:10.937Z,14.30
2019-05-21T12:22:39.121Z,14.30
2019-05-21T12:25:07.475Z,14.50
2019-05-21T12:27:35.728Z,14.50
2019-05-21T12:30:05.094Z,14.60
2019-05-21T12:32:33.507Z,14.50
2019-05-21T12:35:01.737Z,14.60
2019-05-21T12:37:29.800Z,14.50
2019-05-21T12:39:57.930Z,14.40
2019-05-21T12:42:25.978Z,14.40
2019-05-21T12:44:54.026Z,14.30
2019-05-21T12:47:22.146Z,14.30
2019-05-21T12:49:50.132Z,14.40
2019-05-21T12:52:18.137Z,14.40
2019-05-21T12:54:46.538Z,14.50
2019-05-21T12:57:14.568Z,14.60
2019-05-21T12:59:42.539Z,14.50
2019-05-21T13:02:10.862Z,14.50
2019-05-21T13:04:39.112Z,14.50
2019-05-21T13:07:07.510Z,14.60
2019-05-21T13:09:35.813Z,14.50
2019-05-21T13:12:03.961Z,14.50
2019-05-21T13:14:32.558Z,14.60
2019-05-21T13:17:01.035Z,14.70
2019-05-21T13:19:29.430Z,14.70
2019-05-21T13:21:57.770Z,14.80
2019-05-21T13:24:25.880Z,14.90
2019-05-21T13:26:54.234Z,14.60
2019-05-21T13:29:22.370Z,14.60
2019-05-21T13:31:51.129Z,14.70
2019-05-21T13:34:19.401Z,14.70
2019-05-21T13:36:48.033Z,14.70
2019-05-21T13:39:16.355Z,14.70
2019-05-21T13:41:44.805Z,14.60
2019-05-21T13:44:13.766Z,14.50
2019-05-21T13:46:42.079Z,14.70
2019-05-21T13:49:11.653Z,14.60
2019-05-21T13:51:42.263Z,14.40
2019-05-21T13:54:09.304Z,14.60
2019-05-21T13:56:37.467Z,14.70
2019-05-21T13:59:05.503Z,14.60
2019-05-21T14:01:40.845Z,14.70
2019-05-21T14:04:03.651Z,14.80
2019-05-21T14:06:31.719Z,14.60
2019-05-21T14:08:59.893Z,14.70
2019-05-21T14:11:28.298Z,14.60
2019-05-21T14:13:56.532Z,14.50
2019-05-21T14:16:24.713Z,14.60
2019-05-21T14:18:53.122Z,14.80
2019-05-21T14:21:21.492Z,14.80
2019-05-21T14:23:49.524Z,14.90
2019-05-21T14:26:17.964Z,14.80
2019-05-21T14:28:46.088Z,14.70
2019-05-21T14:31:14.151Z,14.60
2019-05-21T14:33:46.388Z,14.60
2019-05-21T14:36:12.301Z,14.50
2019-05-21T14:38:40.595Z,14.70
2019-05-21T14:41:08.899Z,14.60
2019-05-21T14:43:37.410Z,14.60
2019-05-21T14:46:05.575Z,14.50
2019-05-21T14:48:33.501Z,14.60
2019-05-21T14:51:01.459Z,14.60
2019-05-21T14:53:29.641Z,14.60
2019-05-21T14:55:57.868Z,14.80
2019-05-21T14:58:25.811Z,14.90
2019-05-21T15:00:54.008Z,14.70
2019-05-21T15:03:25.416Z,14.70
2019-05-21T15:05:52.075Z,14.70
2019-05-21T15:08:20.119Z,14.70
2019-05-21T15:10:49.528Z,14.80
2019-05-21T15:13:18.226Z,14.80
2019-05-21T15:15:46.405Z,14.80
2019-05-21T15:18:20.899Z,14.80
2019-05-21T15:20:50.284Z,14.80
2019-05-21T15:23:18.254Z,14.90
2019-05-21T15:25:46.322Z,14.90
2019-05-21T15:28:14.610Z,14.80
2019-05-21T15:30:42.761Z,14.80
2019-05-21T15:33:11.057Z,14.80
2019-05-21T15:35:39.137Z,14.80
2019-05-21T15:38:07.642Z,14.60
2019-05-21T15:40:35.780Z,14.60
2019-05-21T15:43:04.395Z,14.70
2019-05-21T15:45:32.709Z,14.80
2019-05-21T15:48:01.806Z,14.70
2019-05-21T15:50:30.450Z,14.70
2019-05-21T15:52:58.805Z,14.60
2019-05-21T15:55:28.135Z,14.60
2019-05-21T15:57:56.733Z,14.70
2019-05-21T16:00:25.253Z,14.70
2019-05-21T16:02:54.137Z,14.60
2019-05-21T16:05:22.589Z,14.60
2019-05-21T16:07:50.806Z,14.60
2019-05-21T16:10:19.051Z,14.50
2019-05-21T16:12:47.309Z,14.50
2019-05-21T16:15:15.622Z,14.50
2019-05-21T16:17:44.301Z,14.50
2019-05-21T16:20:13.194Z,14.50
2019-05-21T16:22:41.205Z,14.60
2019-05-21T16:25:09.862Z,14.50
2019-05-21T16:27:38.441Z,14.50
2019-05-21T16:30:07.085Z,14.50
2019-05-21T16:32:35.866Z,14.50
2019-05-21T16:35:04.330Z,14.50
2019-05-21T16:37:32.773Z,14.50
2019-05-21T16:40:01.676Z,14.50
2019-05-21T16:42:29.794Z,14.60
2019-05-21T16:44:58.108Z,14.50
2019-05-21T16:47:26.222Z,14.50
2019-05-21T16:49:54.954Z,14.60
2019-05-21T16:52:23.917Z,14.50
2019-05-21T16:54:52.860Z,14.60
2019-05-21T16:57:21.029Z,14.40
2019-05-21T16:59:49.074Z,14.40
2019-05-21T17:02:16.984Z,14.50
2019-05-21T17:04:45.023Z,14.60
2019-05-21T17:07:13.072Z,14.50
2019-05-21T17:09:41.457Z,14.50
2019-05-21T17:12:09.978Z,14.40
2019-05-21T17:14:38.189Z,14.30
2019-05-21T17:17:06.238Z,14.40
2019-05-21T17:19:34.481Z,14.40
2019-05-21T17:22:02.621Z,14.50
2019-05-21T17:24:30.558Z,14.40
2019-05-21T17:26:58.585Z,14.40
2019-05-21T17:29:26.620Z,14.20
2019-05-21T17:31:54.904Z,13.90
2019-05-21T17:34:23.103Z,14.10
2019-05-21T17:36:51.248Z,14.10
2019-05-21T17:39:19.261Z,14.20
2019-05-21T17:41:47.305Z,14.20
2019-05-21T17:44:15.362Z,14.20
2019-05-21T17:46:43.477Z,14.10
2019-05-21T17:49:11.511Z,14.10
2019-05-21T17:51:39.566Z,14.10
2019-05-21T17:54:07.641Z,14.10
2019-05-21T17:56:35.998Z,14.10
2019-05-21T17:59:04.182Z,14.10
2019-05-21T18:01:32.944Z,14.10
2019-05-21T18:04:01.825Z,14.10
2019-05-21T18:06:30.519Z,14.20
2019-05-21T18:08:58.999Z,14.10
2019-05-21T18:11:27.146Z,14.10
2019-05-21T18:13:55.754Z,14.10
2019-05-21T18:16:24.193Z,14.20
2019-05-21T18:18:52.793Z,14.10
2019-05-21T18:21:21.546Z,14.10
2019-05-21T18:23:50.166Z,14.10
2019-05-21T18:26:18.878Z,14.10
2019-05-21T18:28:48.164Z,14.00
2019-05-21T18:31:15.333Z,13.90
2019-05-21T18:33:43.690Z,14.00
2019-05-21T18:36:12.418Z,14.00
2019-05-21T18:38:41.218Z,14.10
2019-05-21T18:41:10.523Z,13.90
2019-05-21T18:43:38.326Z,14.00
2019-05-21T18:46:07.021Z,14.10
2019-05-21T18:48:34.300Z,14.10
2019-05-21T18:51:02.782Z,14.10
2019-05-21T18:53:30.924Z,14.20
2019-05-21T18:55:59.437Z,14.20
2019-05-21T18:58:27.834Z,14.20
2019-05-21T19:00:55.922Z,14.10
2019-05-21T19:03:25.635Z,14.00
2019-05-21T19:05:54.109Z,14.00
2019-05-21T19:08:22.265Z,13.80
2019-05-21T19:10:50.325Z,13.90
2019-05-21T19:13:18.479Z,14.00
2019-05-21T19:15:46.458Z,14.00
2019-05-21T19:18:14.505Z,14.10
2019-05-21T19:20:42.720Z,14.00
2019-05-21T19:23:11.037Z,14.00
2019-05-21T19:25:39.177Z,14.00
2019-05-21T19:28:07.842Z,14.00
2019-05-21T19:30:36.314Z,14.00
2019-05-21T19:33:04.974Z,14.10
2019-05-21T19:35:33.830Z,14.10
2019-05-21T19:38:02.320Z,13.80
2019-05-21T19:40:31.044Z,13.70
2019-05-21T19:42:59.514Z,13.70
2019-05-21T19:45:27.709Z,13.70
2019-05-21T19:47:56.148Z,13.80
2019-05-21T19:50:24.289Z,13.70
2019-05-21T19:52:52.659Z,13.70
2019-05-21T19:55:21.184Z,13.60
2019-05-21T19:57:50.037Z,13.70
2019-05-21T20:00:20.027Z,13.70
2019-05-21T20:02:50.050Z,13.80
2019-05-21T20:05:17.161Z,13.80
2019-05-21T20:07:45.870Z,13.80
2019-05-21T20:10:14.593Z,13.70
2019-05-21T20:12:43.185Z,13.40
2019-05-21T20:15:11.922Z,13.40
2019-05-21T20:17:42.829Z,13.50
2019-05-21T20:20:13.830Z,13.50
2019-05-21T20:22:43.034Z,13.70
2019-05-21T20:25:12.070Z,13.50
2019-05-21T20:27:40.683Z,13.60
2019-05-21T20:30:13.043Z,13.60
2019-05-21T20:32:42.512Z,13.50
2019-05-21T20:35:13.831Z,13.50
2019-05-21T20:37:42.191Z,13.60
2019-05-21T20:40:12.805Z,13.60
2019-05-21T20:42:42.052Z,13.60
2019-05-21T20:45:11.098Z,13.60
2019-05-21T20:47:39.319Z,13.40
2019-05-21T20:50:12.105Z,13.40
2019-05-21T20:52:40.151Z,13.40
2019-05-21T20:55:08.762Z,13.50
2019-05-21T20:57:36.847Z,13.40
2019-05-21T21:00:05.217Z,13.50
2019-05-21T21:02:33.830Z,13.40
2019-05-21T21:05:02.502Z,13.30
2019-05-21T21:07:30.715Z,13.20
2019-05-21T21:09:58.842Z,13.20
2019-05-21T21:12:27.085Z,13.50
2019-05-21T21:14:57.048Z,13.50
2019-05-21T21:17:25.640Z,13.50
2019-05-21T21:19:54.194Z,13.50
2019-05-21T21:22:22.290Z,13.50
2019-05-21T21:24:50.433Z,13.60
2019-05-21T21:27:18.985Z,13.70
2019-05-21T21:29:47.477Z,13.80
2019-05-21T21:32:15.592Z,13.80
2019-05-21T21:34:44.154Z,13.90
2019-05-21T21:37:12.380Z,13.80
2019-05-21T21:39:40.445Z,13.70
2019-05-21T21:42:09.281Z,13.70
2019-05-21T21:44:38.210Z,13.60
2019-05-21T21:47:06.473Z,13.50
2019-05-21T21:49:34.923Z,13.40
2019-05-21T21:52:05.527Z,13.40
2019-05-21T21:54:33.738Z,13.30
2019-05-21T21:57:01.898Z,13.40
2019-05-21T21:59:30.182Z,13.50
2019-05-21T22:02:07.866Z,13.60
2019-05-21T22:04:36.599Z,13.40
2019-05-21T22:07:05.204Z,13.50
2019-05-21T22:09:34.662Z,13.50
2019-05-21T22:12:08.032Z,13.60
2019-05-21T22:14:49.805Z,13.50
2019-05-21T22:17:08.206Z,13.50
2019-05-21T22:19:36.727Z,13.30
2019-05-21T22:22:04.806Z,13.30
2019-05-21T22:24:33.182Z,13.30
2019-05-21T22:27:01.946Z,13.20
2019-05-21T22:29:30.531Z,13.00
2019-05-21T22:31:58.746Z,13.20
2019-05-21T22:34:27.182Z,13.30
2019-05-21T22:36:55.423Z,13.10
2019-05-21T22:39:25.627Z,12.90
2019-05-21T22:41:54.066Z,13.00
2019-05-21T22:44:22.165Z,13.00
2019-05-21T22:46:50.640Z,13.00
2019-05-21T22:49:18.693Z,13.00
2019-05-21T22:51:47.542Z,13.10
2019-05-21T22:54:15.787Z,13.20
2019-05-21T22:56:44.114Z,13.20
2019-05-21T22:59:12.466Z,13.20
2019-05-21T23:01:40.848Z,13.30
2019-05-21T23:04:09.226Z,13.40
2019-05-21T23:06:37.706Z,13.10
2019-05-21T23:09:06.971Z,13.10
2019-05-21T23:11:35.621Z,13.20
2019-05-21T23:14:04.222Z,13.20
2019-05-21T23:16:32.862Z,13.30
2019-05-21T23:19:01.623Z,13.20
2019-05-21T23:21:30.692Z,13.10
2019-05-21T23:24:00.950Z,13.10
2019-05-21T23:26:29.830Z,13.00
2019-05-21T23:28:59.356Z,13.00
2019-05-21T23:31:29.349Z,12.90
2019-05-21T23:33:59.572Z,13.00
2019-05-21T23:36:28.350Z,13.00
2019-05-21T23:38:57.015Z,13.00
2019-05-21T23:41:26.113Z,13.00
2019-05-21T23:43:54.317Z,13.10
2019-05-21T23:46:22.470Z,13.00
2019-05-21T23:48:50.664Z,13.10
2019-05-21T23:51:18.929Z,13.00
2019-05-21T23:53:47.239Z,13.10
2019-05-21T23:56:15.405Z,13.10
2019-05-21T23:58:43.864Z,13.10
